Portland, OR

12:46 PM PST on January 22, 2017 (GMT -0800)
Southwest Portland | | Change Station

Elev 0 ft 45.52 °N, 122.68 °W | Updated 4 minutes ago

Partly Cloudy
Partly Cloudy
50.2 °F
Feels Like 50.2 °F
N
2.5
Wind Variable Wind from West
Gusts 5.0 mph

Today
High -- | Low -- °F
--% Chance of Precip.
Yesterday
High -- | Low -- °F
Precip. -- in
Pressure 29.56 in
Visibility 10.0 miles
Clouds Few 4000 ft
Mostly Cloudy 18000 ft
Dew Point 39 °F
Humidity 66%
Rainfall Not available.
Snow Depth Not available.
7:41 AM 5:03 PM
Waning Crescent, 24% visible
METAR KPDX 221953Z 13007KT 10SM FEW040 BKN180 07/04 A2956 RMK AO2 SLP009 T00720039
Pressure 29.56 in
Visibility 10.0 miles
Clouds Few 4000 ft
Mostly Cloudy 18000 ft
Dew Point 39 °F
Humidity 66%
Rainfall Not available.
Snow Depth Not available.
7:41 AM 5:03 PM
Waning Crescent, 24% visible
METAR KPDX 221953Z 13007KT 10SM FEW040 BKN180 07/04 A2956 RMK AO2 SLP009 T00720039

Get Your Daily Forecast Email!

Thanks for signing up!

Be on the lookout for a verification email in your inbox.

You'll start receiving the daily forecast at 8 AM.

×

10-Day Weather Forecast

Almanac

Astronomy

Jan. 22, 2017 Rise Set
Actual Time
Civil Twilight
Nautical Twilight
Astronomical Twilight
Moon
Length of Visible Light
Length of Day
Tomorrow will be .
, % of the Moon is Illuminated

Today's Extremes

State Highs State Lows

Community

WunderPhotos

Upload Photos

1,962,540 photos uploaded!

WunderBlog® & News

Nearby

Air Quality

  Air Quality AQ Index Pollutant
Not available.

Snow Depth

Station Depth Elevation

Earthquake Activity

City Distance Mag. Time & Date
Minimum magnitude displayed is 2.5.

Coastal Water Temperatures

Place Temperature

Stations

Nearby Weather Stations

Station Location Temp. Windchill Dew Point Humidity Wind Precip. Elev Updated Type
                   

Watches & Warnings

Small Craft for Rough Bar Advisory
Issued: 8:47 AM PST Jan. 22, 2017 – National Weather Service

... Small Craft Advisory for rough Columbia River bar now in
effect until 3 PM PST Monday...

* in the Main Channel...

* general seas... 16 to 18 feet through Sunday night.

* First Ebb... seas temporarily building to 18 feet with breakers
during the Ebb around 1 PM Sunday.

* Second Ebb... seas temporarily building to 20 feet with
breakers during the Ebb around 115 am Monday.

Precautionary/preparedness actions...

A Small Craft Advisory for rough bar means that wave conditions
are expected to be hazardous to small craft in or near Harbor
entrances.




Http://www.Weather.Gov/Portland